sensor_id;sensor_type;location;lat;lon;timestamp;P1;durP1;ratioP1;P2;durP2;ratioP2
16820;SDS011;8527;49.740;6.604;2022-09-16T00:02:01;9.60;;;3.25;;
16820;SDS011;8527;49.740;6.604;2022-09-16T00:06:59;9.57;;;3.30;;
16820;SDS011;8527;49.740;6.604;2022-09-16T00:11:58;5.28;;;2.90;;
16820;SDS011;8527;49.740;6.604;2022-09-16T00:17:02;3.67;;;3.05;;
16820;SDS011;8527;49.740;6.604;2022-09-16T00:22:04;5.13;;;2.80;;
16820;SDS011;8527;49.740;6.604;2022-09-16T00:27:03;7.88;;;3.03;;
16820;SDS011;8527;49.740;6.604;2022-09-16T00:32:04;13.18;;;3.28;;
16820;SDS011;8527;49.740;6.604;2022-09-16T00:37:03;3.55;;;2.60;;
16820;SDS011;8527;49.740;6.604;2022-09-16T00:42:08;7.40;;;2.97;;
16820;SDS011;8527;49.740;6.604;2022-09-16T00:47:13;9.57;;;2.97;;
16820;SDS011;8527;49.740;6.604;2022-09-16T00:52:15;9.07;;;3.13;;
16820;SDS011;8527;49.740;6.604;2022-09-16T00:57:18;4.53;;;3.25;;
16820;SDS011;8527;49.740;6.604;2022-09-16T01:02:20;5.60;;;3.05;;
16820;SDS011;8527;49.740;6.604;2022-09-16T01:07:23;6.70;;;2.97;;
16820;SDS011;8527;49.740;6.604;2022-09-16T01:12:29;9.63;;;3.00;;
16820;SDS011;8527;49.740;6.604;2022-09-16T01:17:49;9.00;;;2.88;;
16820;SDS011;8527;49.740;6.604;2022-09-16T01:23:00;11.00;;;3.00;;
16820;SDS011;8527;49.740;6.604;2022-09-16T01:28:39;4.10;;;2.80;;
16820;SDS011;8527;49.740;6.604;2022-09-16T01:33:57;6.53;;;2.92;;
16820;SDS011;8527;49.740;6.604;2022-09-16T01:39:05;7.38;;;2.83;;
16820;SDS011;8527;49.740;6.604;2022-09-16T01:44:10;3.37;;;2.63;;
16820;SDS011;8527;49.740;6.604;2022-09-16T01:49:20;4.05;;;2.45;;
16820;SDS011;8527;49.740;6.604;2022-09-16T01:54:25;7.28;;;2.75;;
16820;SDS011;8527;49.740;6.604;2022-09-16T01:59:30;6.68;;;2.53;;
16820;SDS011;8527;49.740;6.604;2022-09-16T02:04:37;10.38;;;2.67;;
16820;SDS011;8527;49.740;6.604;2022-09-16T02:09:41;4.03;;;2.47;;
16820;SDS011;8527;49.740;6.604;2022-09-16T02:14:45;6.30;;;2.50;;
16820;SDS011;8527;49.740;6.604;2022-09-16T02:19:50;3.53;;;2.17;;
16820;SDS011;8527;49.740;6.604;2022-09-16T02:24:52;12.27;;;2.80;;
16820;SDS011;8527;49.740;6.604;2022-09-16T02:29:51;7.30;;;2.40;;
16820;SDS011;8527;49.740;6.604;2022-09-16T02:34:55;8.90;;;2.40;;
16820;SDS011;8527;49.740;6.604;2022-09-16T02:40:02;7.13;;;2.47;;
16820;SDS011;8527;49.740;6.604;2022-09-16T02:45:07;4.28;;;2.40;;
16820;SDS011;8527;49.740;6.604;2022-09-16T02:50:10;5.78;;;2.60;;
16820;SDS011;8527;49.740;6.604;2022-09-16T02:55:15;16.02;;;2.78;;
16820;SDS011;8527;49.740;6.604;2022-09-16T03:05:28;4.93;;;2.00;;
16820;SDS011;8527;49.740;6.604;2022-09-16T03:10:28;7.93;;;2.33;;
16820;SDS011;8527;49.740;6.604;2022-09-16T03:15:41;4.18;;;2.13;;
16820;SDS011;8527;49.740;6.604;2022-09-16T03:20:52;7.53;;;2.60;;
16820;SDS011;8527;49.740;6.604;2022-09-16T03:25:57;4.63;;;2.20;;
16820;SDS011;8527;49.740;6.604;2022-09-16T03:30:58;5.05;;;2.40;;
16820;SDS011;8527;49.740;6.604;2022-09-16T03:36:11;4.88;;;2.10;;
16820;SDS011;8527;49.740;6.604;2022-09-16T03:41:17;7.18;;;2.78;;
16820;SDS011;8527;49.740;6.604;2022-09-16T03:46:16;4.70;;;2.20;;
16820;SDS011;8527;49.740;6.604;2022-09-16T03:51:18;4.25;;;2.25;;
16820;SDS011;8527;49.740;6.604;2022-09-16T03:56:16;9.52;;;2.30;;
16820;SDS011;8527;49.740;6.604;2022-09-16T04:01:15;8.90;;;2.50;;
16820;SDS011;8527;49.740;6.604;2022-09-16T04:06:13;7.85;;;2.05;;
16820;SDS011;8527;49.740;6.604;2022-09-16T04:11:15;3.10;;;2.08;;
16820;SDS011;8527;49.740;6.604;2022-09-16T04:16:17;5.25;;;2.10;;
16820;SDS011;8527;49.740;6.604;2022-09-16T04:21:17;5.15;;;2.00;;
16820;SDS011;8527;49.740;6.604;2022-09-16T04:26:18;5.70;;;2.20;;
16820;SDS011;8527;49.740;6.604;2022-09-16T04:31:17;3.05;;;1.80;;
16820;SDS011;8527;49.740;6.604;2022-09-16T04:36:16;8.20;;;2.10;;
16820;SDS011;8527;49.740;6.604;2022-09-16T04:41:19;3.90;;;1.77;;
16820;SDS011;8527;49.740;6.604;2022-09-16T04:46:19;4.63;;;1.80;;
16820;SDS011;8527;49.740;6.604;2022-09-16T04:51:18;7.60;;;2.00;;
16820;SDS011;8527;49.740;6.604;2022-09-16T04:56:23;8.68;;;2.03;;
16820;SDS011;8527;49.740;6.604;2022-09-16T05:01:23;4.45;;;2.10;;
16820;SDS011;8527;49.740;6.604;2022-09-16T05:06:23;6.50;;;2.13;;
16820;SDS011;8527;49.740;6.604;2022-09-16T05:11:29;5.13;;;2.70;;
16820;SDS011;8527;49.740;6.604;2022-09-16T05:16:34;8.70;;;2.38;;
16820;SDS011;8527;49.740;6.604;2022-09-16T05:21:40;7.78;;;2.50;;
16820;SDS011;8527;49.740;6.604;2022-09-16T05:26:42;10.48;;;2.60;;
16820;SDS011;8527;49.740;6.604;2022-09-16T05:31:45;7.97;;;2.20;;
16820;SDS011;8527;49.740;6.604;2022-09-16T05:36:44;8.32;;;2.42;;
16820;SDS011;8527;49.740;6.604;2022-09-16T05:41:46;6.40;;;2.40;;
16820;SDS011;8527;49.740;6.604;2022-09-16T05:46:45;5.03;;;2.80;;
16820;SDS011;8527;49.740;6.604;2022-09-16T05:51:47;4.32;;;2.17;;
16820;SDS011;8527;49.740;6.604;2022-09-16T05:56:49;11.23;;;2.63;;
16820;SDS011;8527;49.740;6.604;2022-09-16T06:01:48;7.95;;;2.40;;
16820;SDS011;8527;49.740;6.604;2022-09-16T06:06:47;7.50;;;2.10;;
16820;SDS011;8527;49.740;6.604;2022-09-16T06:11:51;7.57;;;2.17;;
16820;SDS011;8527;49.740;6.604;2022-09-16T06:16:50;13.43;;;2.45;;
16820;SDS011;8527;49.740;6.604;2022-09-16T06:21:49;4.43;;;1.83;;
16820;SDS011;8527;49.740;6.604;2022-09-16T06:26:48;8.15;;;2.13;;
16820;SDS011;8527;49.740;6.604;2022-09-16T06:31:49;5.15;;;2.72;;
16820;SDS011;8527;49.740;6.604;2022-09-16T06:36:47;9.02;;;2.60;;
16820;SDS011;8527;49.740;6.604;2022-09-16T06:41:46;8.40;;;3.03;;
16820;SDS011;8527;49.740;6.604;2022-09-16T06:46:48;7.88;;;2.22;;
16820;SDS011;8527;49.740;6.604;2022-09-16T06:51:49;4.90;;;2.25;;
16820;SDS011;8527;49.740;6.604;2022-09-16T06:56:47;6.65;;;2.25;;
16820;SDS011;8527;49.740;6.604;2022-09-16T07:01:48;9.68;;;3.08;;
16820;SDS011;8527;49.740;6.604;2022-09-16T07:06:52;11.10;;;2.67;;
16820;SDS011;8527;49.740;6.604;2022-09-16T07:11:54;10.77;;;3.10;;
16820;SDS011;8527;49.740;6.604;2022-09-16T07:16:55;5.85;;;2.70;;
16820;SDS011;8527;49.740;6.604;2022-09-16T07:21:54;6.63;;;2.20;;
16820;SDS011;8527;49.740;6.604;2022-09-16T07:26:53;4.95;;;2.75;;
16820;SDS011;8527;49.740;6.604;2022-09-16T07:31:51;8.13;;;2.28;;
16820;SDS011;8527;49.740;6.604;2022-09-16T07:36:52;6.68;;;2.20;;
16820;SDS011;8527;49.740;6.604;2022-09-16T07:41:51;6.20;;;2.03;;
16820;SDS011;8527;49.740;6.604;2022-09-16T07:46:50;5.43;;;2.08;;
16820;SDS011;8527;49.740;6.604;2022-09-16T07:51:48;5.72;;;1.77;;
16820;SDS011;8527;49.740;6.604;2022-09-16T07:56:49;15.00;;;2.28;;
16820;SDS011;8527;49.740;6.604;2022-09-16T08:01:48;4.65;;;1.83;;
16820;SDS011;8527;49.740;6.604;2022-09-16T08:06:47;5.30;;;1.85;;
16820;SDS011;8527;49.740;6.604;2022-09-16T08:11:46;6.20;;;1.90;;
16820;SDS011;8527;49.740;6.604;2022-09-16T08:16:47;3.30;;;1.60;;
16820;SDS011;8527;49.740;6.604;2022-09-16T08:21:47;4.30;;;2.03;;
16820;SDS011;8527;49.740;6.604;2022-09-16T08:26:45;6.05;;;1.92;;
16820;SDS011;8527;49.740;6.604;2022-09-16T08:31:44;3.00;;;1.50;;
16820;SDS011;8527;49.740;6.604;2022-09-16T08:36:47;10.52;;;2.00;;
16820;SDS011;8527;49.740;6.604;2022-09-16T08:41:53;8.68;;;2.13;;
16820;SDS011;8527;49.740;6.604;2022-09-16T08:47:07;4.45;;;1.50;;
16820;SDS011;8527;49.740;6.604;2022-09-16T08:52:12;5.60;;;1.45;;
16820;SDS011;8527;49.740;6.604;2022-09-16T08:57:16;4.75;;;1.70;;
16820;SDS011;8527;49.740;6.604;2022-09-16T09:02:23;3.25;;;1.40;;
16820;SDS011;8527;49.740;6.604;2022-09-16T09:07:34;8.85;;;3.10;;
16820;SDS011;8527;49.740;6.604;2022-09-16T09:12:49;4.88;;;1.48;;
16820;SDS011;8527;49.740;6.604;2022-09-16T09:17:58;6.40;;;1.85;;
16820;SDS011;8527;49.740;6.604;2022-09-16T09:23:13;5.50;;;1.67;;
16820;SDS011;8527;49.740;6.604;2022-09-16T09:28:34;5.70;;;1.42;;
16820;SDS011;8527;49.740;6.604;2022-09-16T09:33:58;4.13;;;1.35;;
16820;SDS011;8527;49.740;6.604;2022-09-16T09:39:16;2.85;;;1.20;;
16820;SDS011;8527;49.740;6.604;2022-09-16T09:44:40;3.28;;;1.00;;
16820;SDS011;8527;49.740;6.604;2022-09-16T09:49:48;3.90;;;1.15;;
16820;SDS011;8527;49.740;6.604;2022-09-16T09:54:49;5.15;;;1.08;;
16820;SDS011;8527;49.740;6.604;2022-09-16T09:59:49;5.25;;;1.20;;
16820;SDS011;8527;49.740;6.604;2022-09-16T10:05:01;6.20;;;1.40;;
16820;SDS011;8527;49.740;6.604;2022-09-16T10:10:03;4.40;;;1.30;;
16820;SDS011;8527;49.740;6.604;2022-09-16T10:15:21;4.00;;;1.33;;
16820;SDS011;8527;49.740;6.604;2022-09-16T10:20:25;4.45;;;1.08;;
16820;SDS011;8527;49.740;6.604;2022-09-16T10:25:25;5.35;;;1.20;;
16820;SDS011;8527;49.740;6.604;2022-09-16T10:30:24;4.38;;;0.85;;
16820;SDS011;8527;49.740;6.604;2022-09-16T10:35:30;3.97;;;0.80;;
16820;SDS011;8527;49.740;6.604;2022-09-16T10:40:30;3.72;;;0.93;;
16820;SDS011;8527;49.740;6.604;2022-09-16T10:45:29;4.00;;;1.02;;
16820;SDS011;8527;49.740;6.604;2022-09-16T10:50:33;3.80;;;1.00;;
16820;SDS011;8527;49.740;6.604;2022-09-16T10:55:32;3.08;;;0.80;;
16820;SDS011;8527;49.740;6.604;2022-09-16T11:00:34;1.27;;;0.98;;
16820;SDS011;8527;49.740;6.604;2022-09-16T11:05:47;4.03;;;0.80;;
16820;SDS011;8527;49.740;6.604;2022-09-16T11:10:57;2.80;;;0.85;;
16820;SDS011;8527;49.740;6.604;2022-09-16T11:16:04;4.32;;;1.10;;
16820;SDS011;8527;49.740;6.604;2022-09-16T11:26:51;2.72;;;0.90;;
16820;SDS011;8527;49.740;6.604;2022-09-16T11:31:58;5.18;;;1.10;;
16820;SDS011;8527;49.740;6.604;2022-09-16T11:37:12;3.22;;;0.98;;
16820;SDS011;8527;49.740;6.604;2022-09-16T11:42:21;1.65;;;0.90;;
16820;SDS011;8527;49.740;6.604;2022-09-16T11:47:38;5.40;;;1.02;;
16820;SDS011;8527;49.740;6.604;2022-09-16T11:53:00;2.70;;;0.95;;
16820;SDS011;8527;49.740;6.604;2022-09-16T11:58:10;3.33;;;0.73;;
16820;SDS011;8527;49.740;6.604;2022-09-16T12:03:21;1.85;;;0.60;;
16820;SDS011;8527;49.740;6.604;2022-09-16T12:08:29;1.77;;;0.40;;
16820;SDS011;8527;49.740;6.604;2022-09-16T12:13:36;2.10;;;0.50;;
16820;SDS011;8527;49.740;6.604;2022-09-16T12:18:39;1.33;;;0.40;;
16820;SDS011;8527;49.740;6.604;2022-09-16T12:23:44;2.10;;;0.60;;
16820;SDS011;8527;49.740;6.604;2022-09-16T12:28:47;0.55;;;0.35;;
16820;SDS011;8527;49.740;6.604;2022-09-16T12:33:53;1.17;;;0.70;;
16820;SDS011;8527;49.740;6.604;2022-09-16T12:38:58;2.00;;;0.63;;
16820;SDS011;8527;49.740;6.604;2022-09-16T12:44:01;2.25;;;0.50;;
16820;SDS011;8527;49.740;6.604;2022-09-16T12:49:43;1.15;;;0.28;;
16820;SDS011;8527;49.740;6.604;2022-09-16T12:55:30;0.65;;;0.30;;
16820;SDS011;8527;49.740;6.604;2022-09-16T13:00:39;2.78;;;0.30;;
16820;SDS011;8527;49.740;6.604;2022-09-16T13:05:48;0.32;;;0.32;;
16820;SDS011;8527;49.740;6.604;2022-09-16T13:10:56;1.15;;;0.52;;
16820;SDS011;8527;49.740;6.604;2022-09-16T13:15:57;0.95;;;0.40;;
16820;SDS011;8527;49.740;6.604;2022-09-16T13:20:58;2.28;;;0.68;;
16820;SDS011;8527;49.740;6.604;2022-09-16T13:26:02;0.95;;;0.30;;
16820;SDS011;8527;49.740;6.604;2022-09-16T13:31:14;0.70;;;0.43;;
16820;SDS011;8527;49.740;6.604;2022-09-16T13:36:15;4.60;;;0.70;;
16820;SDS011;8527;49.740;6.604;2022-09-16T13:41:33;1.38;;;0.45;;
16820;SDS011;8527;49.740;6.604;2022-09-16T13:46:34;1.75;;;0.50;;
16820;SDS011;8527;49.740;6.604;2022-09-16T13:51:37;0.90;;;0.45;;
16820;SDS011;8527;49.740;6.604;2022-09-16T13:56:46;1.07;;;0.30;;
16820;SDS011;8527;49.740;6.604;2022-09-16T14:02:06;0.88;;;0.57;;
16820;SDS011;8527;49.740;6.604;2022-09-16T14:07:19;1.33;;;0.90;;
16820;SDS011;8527;49.740;6.604;2022-09-16T14:12:32;1.40;;;1.08;;
16820;SDS011;8527;49.740;6.604;2022-09-16T14:17:40;0.50;;;0.50;;
16820;SDS011;8527;49.740;6.604;2022-09-16T14:22:44;1.10;;;0.50;;
16820;SDS011;8527;49.740;6.604;2022-09-16T14:27:45;1.80;;;0.68;;
16820;SDS011;8527;49.740;6.604;2022-09-16T14:32:46;2.35;;;0.95;;
16820;SDS011;8527;49.740;6.604;2022-09-16T14:37:46;0.40;;;0.40;;
16820;SDS011;8527;49.740;6.604;2022-09-16T14:42:50;1.23;;;0.65;;
16820;SDS011;8527;49.740;6.604;2022-09-16T14:47:51;0.80;;;0.60;;
16820;SDS011;8527;49.740;6.604;2022-09-16T14:52:52;0.77;;;0.50;;
16820;SDS011;8527;49.740;6.604;2022-09-16T14:57:55;1.17;;;0.40;;
16820;SDS011;8527;49.740;6.604;2022-09-16T15:02:54;0.40;;;0.40;;
16820;SDS011;8527;49.740;6.604;2022-09-16T15:08:06;0.50;;;0.30;;
16820;SDS011;8527;49.740;6.604;2022-09-16T15:13:10;0.73;;;0.35;;
16820;SDS011;8527;49.740;6.604;2022-09-16T15:18:11;0.30;;;0.30;;
16820;SDS011;8527;49.740;6.604;2022-09-16T15:23:20;0.45;;;0.28;;
16820;SDS011;8527;49.740;6.604;2022-09-16T15:28:23;0.30;;;0.30;;
16820;SDS011;8527;49.740;6.604;2022-09-16T15:33:23;0.40;;;0.20;;
16820;SDS011;8527;49.740;6.604;2022-09-16T15:38:23;0.20;;;0.20;;
16820;SDS011;8527;49.740;6.604;2022-09-16T15:43:25;1.02;;;0.30;;
16820;SDS011;8527;49.740;6.604;2022-09-16T15:48:28;0.45;;;0.38;;
16820;SDS011;8527;49.740;6.604;2022-09-16T15:53:34;1.35;;;0.98;;
16820;SDS011;8527;49.740;6.604;2022-09-16T15:58:41;3.45;;;2.05;;
16820;SDS011;8527;49.740;6.604;2022-09-16T16:03:50;1.92;;;0.63;;
16820;SDS011;8527;49.740;6.604;2022-09-16T16:08:51;1.38;;;1.13;;
16820;SDS011;8527;49.740;6.604;2022-09-16T16:13:54;0.40;;;0.40;;
16820;SDS011;8527;49.740;6.604;2022-09-16T16:18:53;1.73;;;0.55;;
16820;SDS011;8527;49.740;6.604;2022-09-16T16:23:54;0.65;;;0.50;;
16820;SDS011;8527;49.740;6.604;2022-09-16T16:28:55;0.70;;;0.50;;
16820;SDS011;8527;49.740;6.604;2022-09-16T16:33:53;1.60;;;0.47;;
16820;SDS011;8527;49.740;6.604;2022-09-16T16:38:52;2.95;;;0.60;;
16820;SDS011;8527;49.740;6.604;2022-09-16T16:43:51;2.95;;;1.23;;
16820;SDS011;8527;49.740;6.604;2022-09-16T16:48:54;1.13;;;0.70;;
16820;SDS011;8527;49.740;6.604;2022-09-16T16:53:56;0.50;;;0.40;;
16820;SDS011;8527;49.740;6.604;2022-09-16T16:58:55;3.13;;;0.82;;
16820;SDS011;8527;49.740;6.604;2022-09-16T17:03:56;2.55;;;0.70;;
16820;SDS011;8527;49.740;6.604;2022-09-16T17:08:55;1.17;;;0.60;;
16820;SDS011;8527;49.740;6.604;2022-09-16T17:13:56;2.40;;;0.95;;
16820;SDS011;8527;49.740;6.604;2022-09-16T17:18:59;2.28;;;0.95;;
16820;SDS011;8527;49.740;6.604;2022-09-16T17:24:01;0.35;;;0.35;;
16820;SDS011;8527;49.740;6.604;2022-09-16T17:28:59;1.70;;;0.93;;
16820;SDS011;8527;49.740;6.604;2022-09-16T17:34:01;1.85;;;1.75;;
16820;SDS011;8527;49.740;6.604;2022-09-16T17:39:02;0.65;;;0.63;;
16820;SDS011;8527;49.740;6.604;2022-09-16T17:44:03;1.63;;;0.50;;
16820;SDS011;8527;49.740;6.604;2022-09-16T17:49:06;3.40;;;0.80;;
16820;SDS011;8527;49.740;6.604;2022-09-16T17:54:07;3.30;;;0.40;;
16820;SDS011;8527;49.740;6.604;2022-09-16T17:59:06;2.28;;;0.57;;
16820;SDS011;8527;49.740;6.604;2022-09-16T18:04:07;1.08;;;0.38;;
16820;SDS011;8527;49.740;6.604;2022-09-16T18:09:05;2.25;;;0.93;;
16820;SDS011;8527;49.740;6.604;2022-09-16T18:14:05;1.33;;;0.80;;
16820;SDS011;8527;49.740;6.604;2022-09-16T18:19:07;2.58;;;1.00;;
16820;SDS011;8527;49.740;6.604;2022-09-16T18:24:06;1.98;;;1.20;;
16820;SDS011;8527;49.740;6.604;2022-09-16T18:29:08;1.58;;;1.00;;
16820;SDS011;8527;49.740;6.604;2022-09-16T18:34:10;1.88;;;0.80;;
16820;SDS011;8527;49.740;6.604;2022-09-16T18:39:10;2.28;;;0.85;;
16820;SDS011;8527;49.740;6.604;2022-09-16T18:44:11;4.43;;;0.65;;
16820;SDS011;8527;49.740;6.604;2022-09-16T18:49:14;1.65;;;0.90;;
16820;SDS011;8527;49.740;6.604;2022-09-16T18:54:15;1.15;;;0.65;;
16820;SDS011;8527;49.740;6.604;2022-09-16T18:59:19;2.83;;;0.90;;
16820;SDS011;8527;49.740;6.604;2022-09-16T19:04:25;2.45;;;0.60;;
16820;SDS011;8527;49.740;6.604;2022-09-16T19:09:26;4.47;;;0.80;;
16820;SDS011;8527;49.740;6.604;2022-09-16T19:14:24;1.85;;;0.90;;
16820;SDS011;8527;49.740;6.604;2022-09-16T19:19:25;1.65;;;0.65;;
16820;SDS011;8527;49.740;6.604;2022-09-16T19:24:24;1.52;;;0.80;;
16820;SDS011;8527;49.740;6.604;2022-09-16T19:29:25;6.95;;;1.20;;
16820;SDS011;8527;49.740;6.604;2022-09-16T19:34:29;5.20;;;1.67;;
16820;SDS011;8527;49.740;6.604;2022-09-16T19:39:28;1.33;;;1.20;;
16820;SDS011;8527;49.740;6.604;2022-09-16T19:44:26;2.00;;;0.82;;
16820;SDS011;8527;49.740;6.604;2022-09-16T19:49:25;4.18;;;1.50;;
16820;SDS011;8527;49.740;6.604;2022-09-16T19:54:27;2.05;;;1.10;;
16820;SDS011;8527;49.740;6.604;2022-09-16T19:59:43;1.67;;;0.95;;
16820;SDS011;8527;49.740;6.604;2022-09-16T20:04:42;2.60;;;1.20;;
16820;SDS011;8527;49.740;6.604;2022-09-16T20:09:50;0.60;;;0.60;;
16820;SDS011;8527;49.740;6.604;2022-09-16T20:14:49;0.73;;;0.60;;
16820;SDS011;8527;49.740;6.604;2022-09-16T20:19:48;1.75;;;0.70;;
16820;SDS011;8527;49.740;6.604;2022-09-16T20:25:10;3.30;;;1.08;;
16820;SDS011;8527;49.740;6.604;2022-09-16T20:30:11;2.95;;;0.90;;
16820;SDS011;8527;49.740;6.604;2022-09-16T20:35:14;4.78;;;0.90;;
16820;SDS011;8527;49.740;6.604;2022-09-16T20:40:18;2.70;;;1.10;;
16820;SDS011;8527;49.740;6.604;2022-09-16T20:45:16;4.13;;;1.00;;
16820;SDS011;8527;49.740;6.604;2022-09-16T20:50:14;3.10;;;0.57;;
16820;SDS011;8527;49.740;6.604;2022-09-16T20:55:19;2.53;;;1.00;;
16820;SDS011;8527;49.740;6.604;2022-09-16T21:00:17;1.63;;;1.00;;
16820;SDS011;8527;49.740;6.604;2022-09-16T21:05:21;2.40;;;1.00;;
16820;SDS011;8527;49.740;6.604;2022-09-16T21:10:23;3.17;;;0.70;;
16820;SDS011;8527;49.740;6.604;2022-09-16T21:15:25;3.75;;;0.80;;
16820;SDS011;8527;49.740;6.604;2022-09-16T21:20:26;1.77;;;0.70;;
16820;SDS011;8527;49.740;6.604;2022-09-16T21:25:27;2.38;;;1.02;;
16820;SDS011;8527;49.740;6.604;2022-09-16T21:30:26;3.70;;;0.90;;
16820;SDS011;8527;49.740;6.604;2022-09-16T21:35:27;2.25;;;0.88;;
16820;SDS011;8527;49.740;6.604;2022-09-16T21:40:28;0.85;;;0.75;;
16820;SDS011;8527;49.740;6.604;2022-09-16T21:45:32;1.25;;;0.60;;
16820;SDS011;8527;49.740;6.604;2022-09-16T21:50:34;2.13;;;0.70;;
16820;SDS011;8527;49.740;6.604;2022-09-16T21:55:38;1.50;;;0.70;;
16820;SDS011;8527;49.740;6.604;2022-09-16T22:00:39;2.67;;;0.82;;
16820;SDS011;8527;49.740;6.604;2022-09-16T22:05:41;1.15;;;0.82;;
16820;SDS011;8527;49.740;6.604;2022-09-16T22:10:48;1.67;;;0.90;;
16820;SDS011;8527;49.740;6.604;2022-09-16T22:15:50;3.03;;;0.80;;
16820;SDS011;8527;49.740;6.604;2022-09-16T22:20:48;0.98;;;0.50;;
16820;SDS011;8527;49.740;6.604;2022-09-16T22:25:49;6.50;;;0.85;;
16820;SDS011;8527;49.740;6.604;2022-09-16T22:30:48;1.27;;;0.70;;
16820;SDS011;8527;49.740;6.604;2022-09-16T22:35:47;4.75;;;1.02;;
16820;SDS011;8527;49.740;6.604;2022-09-16T22:40:45;2.78;;;1.00;;
16820;SDS011;8527;49.740;6.604;2022-09-16T22:45:46;3.40;;;1.00;;
16820;SDS011;8527;49.740;6.604;2022-09-16T22:50:52;3.97;;;0.98;;
16820;SDS011;8527;49.740;6.604;2022-09-16T22:55:54;3.70;;;1.00;;
16820;SDS011;8527;49.740;6.604;2022-09-16T23:01:03;2.50;;;1.05;;
16820;SDS011;8527;49.740;6.604;2022-09-16T23:06:06;3.88;;;1.05;;
16820;SDS011;8527;49.740;6.604;2022-09-16T23:11:06;5.55;;;1.48;;
16820;SDS011;8527;49.740;6.604;2022-09-16T23:16:10;2.70;;;1.10;;
16820;SDS011;8527;49.740;6.604;2022-09-16T23:21:12;3.50;;;1.10;;
16820;SDS011;8527;49.740;6.604;2022-09-16T23:26:13;2.28;;;0.80;;
16820;SDS011;8527;49.740;6.604;2022-09-16T23:31:16;2.33;;;1.10;;
16820;SDS011;8527;49.740;6.604;2022-09-16T23:36:17;1.90;;;1.08;;
16820;SDS011;8527;49.740;6.604;2022-09-16T23:41:20;1.63;;;1.00;;
16820;SDS011;8527;49.740;6.604;2022-09-16T23:46:26;5.40;;;1.50;;
16820;SDS011;8527;49.740;6.604;2022-09-16T23:51:25;1.50;;;1.10;;
16820;SDS011;8527;49.740;6.604;2022-09-16T23:56:27;2.40;;;1.27;;
